Terminal Aerodrome Forecast
Issued by NWS

Home | Current Version | Previous Version | Text Only | Print | Product List | Glossary On
Versions: 1 2 3 4 5 6 7 8 9 10 11 12 13
000
FTUS45 KREV 042300
TAFMMH
TAF
KMMH 042327Z 0500/0524 27015G25KT P6SM SCT070 BKN100
     FM050100 29012KT P6SM SCT100
     FM050700 VRB04KT P6SM SKC
     FM052000 24010KT P6SM SCT050 BKN080=

USA.gov is the U.S. government's official web portal to all federal, state and local government web resources and services.